Time;durP1;ratioP1;P1;durP2;ratioP2;P2;SDS_P1;SDS_P2;PMS_P1;PMS_P2;Temp;Humidity;BMP_temperature;BMP_pressure;BME280_temperature;BME280_humidity;BME280_pressure;Samples;Min_cycle;Max_cycle;Signal;HPM_P1;HPM_P2
2022/03/17 00:01:18;;;;;;;29.87;25.93;;;13.80;52.10;;;;;;5031159;28;20213;-48
2022/03/17 00:03:45;;;;;;;31.33;27.43;;;13.80;52.40;;;;;;5032354;28;20200;-46
2022/03/17 00:06:11;;;;;;;27.87;24.70;;;13.80;52.30;;;;;;5032666;28;20229;-47
2022/03/17 00:08:37;;;;;;;32.27;25.57;;;13.70;52.00;;;;;;5029989;28;20448;-46
2022/03/17 00:11:03;;;;;;;30.77;26.13;;;13.80;52.40;;;;;;5021810;28;20463;-45
2022/03/17 00:13:29;;;;;;;29.23;26.03;;;13.80;52.40;;;;;;5033297;28;20462;-47
2022/03/17 00:15:54;;;;;;;30.17;24.50;;;14.10;51.90;;;;;;5048490;28;20343;-45
2022/03/17 00:18:20;;;;;;;27.57;24.40;;;14.00;51.70;;;;;;5031012;28;20189;-49
2022/03/17 00:20:45;;;;;;;29.10;25.67;;;14.20;51.40;;;;;;5037723;28;20208;-47
2022/03/17 00:23:11;;;;;;;28.13;25.13;;;14.30;51.00;;;;;;5035140;28;20673;-46
2022/03/17 00:25:37;;;;;;;31.43;25.53;;;14.30;50.80;;;;;;5031478;28;20565;-47
2022/03/17 00:28:02;;;;;;;30.27;26.97;;;14.20;50.90;;;;;;5028077;28;20239;-45
2022/03/17 00:30:28;;;;;;;28.17;24.90;;;14.40;51.00;;;;;;5027431;28;20205;-46
2022/03/17 00:32:54;;;;;;;29.30;26.40;;;14.10;50.70;;;;;;5028816;28;20193;-48
2022/03/17 00:35:35;;;;;;;29.67;26.47;;;14.30;51.00;;;;;;5029943;28;20197;-45
2022/03/17 00:38:01;;;;;;;28.10;25.10;;;14.50;50.20;;;;;;5029522;28;20197;-45
2022/03/17 00:40:27;;;;;;;28.60;25.07;;;14.10;50.60;;;;;;5030354;28;20502;-46
2022/03/17 00:42:53;;;;;;;32.70;24.53;;;14.00;50.50;;;;;;5021319;28;21066;-45
2022/03/17 00:45:19;;;;;;;28.70;25.73;;;14.30;50.80;;;;;;5030977;28;20436;-47
2022/03/17 00:47:44;;;;;;;28.70;24.80;;;14.60;50.20;;;;;;5031859;28;20233;-48
2022/03/17 00:50:11;;;;;;;29.33;25.67;;;14.80;49.40;;;;;;5029209;28;20202;-45
2022/03/17 00:52:37;;;;;;;28.67;24.43;;;14.50;49.30;;;;;;5026671;28;20197;-46
2022/03/17 00:55:05;;;;;;;28.93;25.03;;;14.50;49.80;;;;;;5030756;28;20510;-46
2022/03/17 00:57:31;;;;;;;27.90;24.63;;;14.60;49.50;;;;;;5029941;28;20470;-45
2022/03/17 00:59:56;;;;;;;26.73;23.77;;;14.40;49.80;;;;;;5029271;28;20475;-45
2022/03/17 01:02:22;;;;;;;28.10;24.90;;;14.70;49.60;;;;;;5030446;28;20443;-45
2022/03/17 01:04:48;;;;;;;25.33;21.57;;;14.60;49.30;;;;;;5032550;28;20190;-45
2022/03/17 01:07:13;;;;;;;25.93;22.03;;;14.70;49.30;;;;;;5030048;28;20257;-48
2022/03/17 01:09:39;;;;;;;26.63;22.73;;;14.80;49.30;;;;;;5030672;28;20645;-46
2022/03/17 01:12:05;;;;;;;27.80;23.60;;;14.90;49.40;;;;;;5034387;28;20193;-50
2022/03/17 01:14:30;;;;;;;27.13;23.83;;;15.10;49.20;;;;;;5027568;28;20204;-47
2022/03/17 01:16:56;;;;;;;26.57;23.77;;;15.20;48.90;;;;;;5029483;28;20194;-46
2022/03/17 01:19:22;;;;;;;28.23;22.83;;;15.40;48.10;;;;;;5028176;28;20598;-47
2022/03/17 01:21:49;;;;;;;27.53;24.50;;;15.40;47.90;;;;;;5029317;28;20480;-46
2022/03/17 01:24:15;;;;;;;27.77;24.77;;;15.30;48.00;;;;;;5033683;28;20199;-46
2022/03/17 01:26:40;;;;;;;27.93;24.60;;;15.30;48.00;;;;;;5033531;28;20538;-48
2022/03/17 01:29:06;;;;;;;28.10;24.93;;;15.50;47.30;;;;;;5028031;28;20436;-48
2022/03/17 01:31:32;;;;;;;26.80;23.43;;;15.40;47.60;;;;;;5030285;28;20715;-50
2022/03/17 01:33:58;;;;;;;25.37;22.70;;;15.40;47.60;;;;;;5036140;28;20190;-49
2022/03/17 01:36:24;;;;;;;27.17;23.63;;;15.30;47.70;;;;;;5036828;28;20207;-50
2022/03/17 01:38:49;;;;;;;29.77;26.60;;;15.20;47.50;;;;;;5030509;28;20540;-47
2022/03/17 01:41:15;;;;;;;31.20;26.33;;;14.80;47.40;;;;;;5030109;28;20197;-47
2022/03/17 01:43:41;;;;;;;33.73;24.60;;;14.50;48.50;;;;;;5028547;28;20641;-49
2022/03/17 01:46:07;;;;;;;31.33;27.57;;;14.60;48.90;;;;;;5031956;28;20314;-52
2022/03/17 01:48:33;;;;;;;26.27;22.73;;;14.80;48.20;;;;;;5029662;28;20212;-47
2022/03/17 01:50:58;;;;;;;30.10;23.97;;;14.60;48.60;;;;;;5029712;28;20447;-50
2022/03/17 01:53:25;;;;;;;30.27;25.73;;;14.50;48.80;;;;;;5027858;28;20217;-50
2022/03/17 01:55:50;;;;;;;28.43;23.97;;;14.20;49.40;;;;;;5035196;28;20197;-51
2022/03/17 01:58:17;;;;;;;28.80;25.70;;;14.00;49.50;;;;;;5027294;28;20490;-51
2022/03/17 02:00:45;;;;;;;32.63;26.57;;;13.80;49.80;;;;;;5026750;28;20193;-50
2022/03/17 02:03:11;;;;;;;31.13;25.87;;;13.50;50.20;;;;;;5031593;28;20535;-48
2022/03/17 02:05:38;;;;;;;33.87;28.30;;;13.30;50.50;;;;;;5024748;28;20452;-49
2022/03/17 02:08:07;;;;;;;29.50;25.00;;;13.10;51.20;;;;;;5024666;28;20898;-51
2022/03/17 02:13:08;;;;;;;31.30;26.87;;;12.80;52.00;;;;;;5029507;28;20960;-47
2022/03/17 02:13:18;;;;;;;31.53;26.10;;;12.60;52.50;;;;;;5028094;28;20454;-48
2022/03/17 02:15:49;;;;;;;27.73;24.63;;;12.70;52.70;;;;;;5028178;28;20820;-47
2022/03/17 02:18:16;;;;;;;28.57;24.50;;;12.70;52.50;;;;;;5022885;28;20649;-51
2022/03/17 02:20:42;;;;;;;32.10;26.03;;;12.90;52.40;;;;;;5027128;28;20471;-45
2022/03/17 02:25:57;;;;;;;30.53;25.13;;;13.20;51.60;;;;;;5027509;28;20227;-47
2022/03/17 02:28:28;;;;;;;29.93;25.27;;;13.30;51.20;;;;;;5028143;28;20439;-49
2022/03/17 02:30:54;;;;;;;29.87;26.10;;;13.30;51.10;;;;;;5029225;28;20518;-49
2022/03/17 02:33:20;;;;;;;31.03;27.07;;;13.10;51.50;;;;;;5026480;28;20842;-49
2022/03/17 02:35:49;;;;;;;30.07;25.93;;;13.00;52.00;;;;;;5025622;28;20526;-49
2022/03/17 02:38:15;;;;;;;29.67;25.00;;;13.00;52.00;;;;;;5035947;28;20493;-47
2022/03/17 02:40:43;;;;;;;32.27;26.67;;;13.00;51.70;;;;;;5027932;28;20569;-46
2022/03/17 02:43:09;;;;;;;29.70;25.87;;;13.20;51.50;;;;;;5027039;28;20447;-50
2022/03/17 02:45:35;;;;;;;32.67;26.00;;;13.00;51.40;;;;;;5028063;28;20440;-46
2022/03/17 02:48:02;;;;;;;31.90;25.50;;;13.00;51.70;;;;;;5036951;28;20440;-48
2022/03/17 02:50:28;;;;;;;29.67;24.10;;;13.10;51.50;;;;;;5034770;28;20189;-48
2022/03/17 02:52:53;;;;;;;29.63;25.00;;;12.80;51.90;;;;;;5028381;28;20447;-48
2022/03/17 02:55:19;;;;;;;34.50;26.13;;;12.90;52.00;;;;;;5034230;28;20224;-48
2022/03/17 02:57:45;;;;;;;32.63;27.33;;;12.90;52.00;;;;;;5025343;28;20197;-47
2022/03/17 03:00:12;;;;;;;32.23;26.50;;;12.90;51.80;;;;;;5028241;28;20236;-47
2022/03/17 03:02:39;;;;;;;34.97;27.80;;;12.80;52.10;;;;;;5025575;28;20192;-46
2022/03/17 03:05:08;;;;;;;29.97;25.50;;;12.60;52.40;;;;;;5028018;28;20810;-48
2022/03/17 03:07:34;;;;;;;32.10;25.80;;;12.70;52.50;;;;;;5038514;28;20502;-50
2022/03/17 03:10:00;;;;;;;31.30;27.27;;;12.50;52.50;;;;;;5042950;28;22293;-46
2022/03/17 03:12:26;;;;;;;32.23;26.47;;;12.30;53.10;;;;;;5045367;28;20576;-44
2022/03/17 03:14:52;;;;;;;31.00;24.30;;;12.40;53.00;;;;;;5031585;28;20462;-49
2022/03/17 03:17:18;;;;;;;30.20;24.77;;;12.60;52.70;;;;;;5035149;28;20191;-49
2022/03/17 03:19:44;;;;;;;31.30;26.70;;;12.70;52.60;;;;;;5045120;28;20919;-45
2022/03/17 03:22:09;;;;;;;33.17;26.10;;;12.70;52.10;;;;;;5031149;28;20436;-49
2022/03/17 03:24:38;;;;;;;33.77;26.47;;;12.80;52.20;;;;;;5031683;28;20276;-49
2022/03/17 03:27:05;;;;;;;33.83;26.00;;;12.80;51.90;;;;;;5034567;28;20235;-46
2022/03/17 03:29:31;;;;;;;30.63;24.43;;;12.70;52.10;;;;;;5029271;28;20474;-49
2022/03/17 03:32:03;;;;;;;30.07;26.37;;;12.50;52.20;;;;;;5029267;28;20950;-45
2022/03/17 03:34:30;;;;;;;31.33;25.97;;;12.50;52.50;;;;;;5032612;28;20447;-45
2022/03/17 03:39:41;;;;;;;33.67;26.10;;;12.60;52.30;;;;;;5031873;28;20478;-46
2022/03/17 03:42:07;;;;;;;32.40;27.27;;;12.40;52.80;;;;;;5030462;28;20447;-47
2022/03/17 03:44:33;;;;;;;32.80;26.37;;;12.70;52.50;;;;;;5031300;28;20497;-46
2022/03/17 03:46:59;;;;;;;32.30;25.80;;;12.90;52.00;;;;;;5032239;28;20483;-45
2022/03/17 03:49:25;;;;;;;36.57;26.80;;;12.90;51.50;;;;;;5033962;28;20447;-46
2022/03/17 03:51:51;;;;;;;32.67;27.37;;;13.10;51.30;;;;;;5031419;28;20202;-48
2022/03/17 03:54:17;;;;;;;31.90;26.20;;;12.90;51.40;;;;;;5027531;28;20537;-46
2022/03/17 03:56:48;;;;;;;31.50;26.60;;;12.70;51.50;;;;;;5031271;28;20629;-47
2022/03/17 03:59:22;;;;;;;33.80;26.10;;;12.70;51.50;;;;;;5031188;28;20488;-46
2022/03/17 04:01:49;;;;;;;32.73;26.10;;;12.80;51.60;;;;;;5029361;28;20826;-46
2022/03/17 04:04:18;;;;;;;32.07;25.67;;;12.90;51.40;;;;;;5033300;28;20448;-45
2022/03/17 04:06:45;;;;;;;33.23;26.13;;;13.00;51.00;;;;;;5031227;28;20563;-47
2022/03/17 04:09:12;;;;;;;30.03;25.70;;;13.10;50.60;;;;;;5030664;28;20436;-46
2022/03/17 04:11:39;;;;;;;32.20;26.83;;;13.10;50.60;;;;;;5030407;28;20993;-45
2022/03/17 04:14:05;;;;;;;29.87;24.63;;;12.80;50.80;;;;;;5030916;28;20467;-49
2022/03/17 04:16:31;;;;;;;33.87;25.90;;;12.70;51.30;;;;;;5028666;28;20471;-47
2022/03/17 04:18:56;;;;;;;32.17;25.30;;;12.70;51.40;;;;;;5030675;28;20475;-46
2022/03/17 04:21:22;;;;;;;27.40;23.63;;;12.60;51.40;;;;;;5033439;28;20189;-47
2022/03/17 04:23:48;;;;;;;30.47;24.50;;;12.60;51.70;;;;;;5038086;28;20193;-47
2022/03/17 04:26:13;;;;;;;25.13;22.30;;;12.60;51.60;;;;;;5032187;28;20232;-46
2022/03/17 04:28:39;;;;;;;31.57;26.33;;;12.80;51.30;;;;;;5032571;28;20201;-45
2022/03/17 04:31:04;;;;;;;32.03;26.70;;;12.70;51.30;;;;;;5028239;28;20255;-46
2022/03/17 04:33:31;;;;;;;31.00;24.67;;;12.80;51.30;;;;;;5027806;28;20189;-46
2022/03/17 04:35:57;;;;;;;32.90;25.83;;;13.00;50.90;;;;;;5029347;28;20189;-49
2022/03/17 04:38:22;;;;;;;30.83;25.83;;;13.10;50.50;;;;;;5031611;28;20446;-46
2022/03/17 04:40:49;;;;;;;33.70;26.33;;;13.20;50.50;;;;;;5024930;28;20235;-49
2022/03/17 04:43:20;;;;;;;34.53;25.83;;;13.30;50.20;;;;;;5031003;28;20193;-46
2022/03/17 04:45:46;;;;;;;29.50;25.13;;;13.40;49.90;;;;;;5028321;28;20479;-45
2022/03/17 04:48:12;;;;;;;30.20;24.63;;;13.40;49.80;;;;;;5029361;28;20450;-47
2022/03/17 04:50:38;;;;;;;34.10;25.37;;;13.30;50.00;;;;;;5034379;28;20487;-45
2022/03/17 04:55:48;;;;;;;28.30;23.83;;;13.40;49.90;;;;;;5024619;28;20447;-49
2022/03/17 04:58:14;;;;;;;28.03;23.90;;;13.40;49.70;;;;;;5024449;28;20792;-45
2022/03/17 05:00:41;;;;;;;30.53;23.00;;;13.30;49.80;;;;;;5032203;28;20635;-45
2022/03/17 05:03:07;;;;;;;28.17;24.13;;;13.20;50.00;;;;;;5025675;28;20276;-48
2022/03/17 05:05:33;;;;;;;32.57;24.77;;;13.10;50.10;;;;;;5028894;28;20598;-45
2022/03/17 05:07:59;;;;;;;31.43;25.03;;;12.90;50.30;;;;;;5030052;28;20484;-47
2022/03/17 05:10:24;;;;;;;31.30;25.20;;;12.70;50.80;;;;;;5038170;28;20227;-49
2022/03/17 05:12:50;;;;;;;28.90;24.87;;;12.50;51.30;;;;;;5028209;28;20355;-47
2022/03/17 05:15:16;;;;;;;30.23;24.90;;;12.60;51.50;;;;;;5031706;28;20197;-45
2022/03/17 05:17:42;;;;;;;28.37;24.57;;;12.60;51.30;;;;;;5030146;28;20189;-47
2022/03/17 05:20:12;;;;;;;32.27;25.37;;;12.30;51.50;;;;;;5032821;28;20582;-47
2022/03/17 05:22:39;;;;;;;31.60;25.03;;;12.20;52.00;;;;;;5030782;28;20208;-47
2022/03/17 05:25:06;;;;;;;30.63;24.53;;;12.50;51.90;;;;;;5029319;28;20440;-48
2022/03/17 05:27:35;;;;;;;29.67;24.80;;;12.60;51.50;;;;;;5031236;28;20549;-46
2022/03/17 05:30:00;;;;;;;28.17;23.93;;;12.70;51.40;;;;;;5026316;28;20799;-46
2022/03/17 05:32:26;;;;;;;31.43;23.93;;;12.70;50.90;;;;;;5027655;28;20436;-46
2022/03/17 05:34:51;;;;;;;32.53;26.00;;;12.70;51.10;;;;;;5028407;28;20576;-46
2022/03/17 05:37:17;;;;;;;33.20;25.43;;;12.80;51.30;;;;;;5022872;28;20263;-45
2022/03/17 05:39:42;;;;;;;30.03;24.97;;;12.90;50.90;;;;;;5026725;28;20220;-45
2022/03/17 05:42:08;;;;;;;30.50;25.47;;;12.90;50.80;;;;;;5027442;28;20197;-47
2022/03/17 05:44:34;;;;;;;31.90;24.17;;;13.00;50.70;;;;;;5034533;28;20275;-47
2022/03/17 05:47:00;;;;;;;29.83;24.20;;;13.10;50.50;;;;;;5036183;28;20587;-46
2022/03/17 05:49:25;;;;;;;31.83;23.90;;;13.30;50.40;;;;;;5041060;28;20233;-45
2022/03/17 05:51:51;;;;;;;29.23;25.23;;;13.20;50.20;;;;;;5027156;28;20221;-47
2022/03/17 05:54:16;;;;;;;32.43;24.50;;;13.20;50.10;;;;;;5028571;28;20197;-48
2022/03/17 05:56:42;;;;;;;31.50;24.83;;;13.20;50.30;;;;;;5030513;28;20189;-45
2022/03/17 05:59:07;;;;;;;30.23;26.67;;;13.00;50.40;;;;;;5042172;28;20252;-46
2022/03/17 06:01:33;;;;;;;27.53;23.10;;;12.90;50.80;;;;;;5026901;28;20197;-45
2022/03/17 06:03:58;;;;;;;32.97;26.33;;;12.90;51.00;;;;;;5040282;28;20199;-48
2022/03/17 06:06:24;;;;;;;35.83;26.87;;;13.10;50.80;;;;;;5030121;28;20258;-46
2022/03/17 06:08:50;;;;;;;31.33;25.53;;;13.30;50.60;;;;;;5031710;28;20250;-45
2022/03/17 06:11:15;;;;;;;35.80;26.67;;;13.30;50.40;;;;;;5036764;28;20205;-48
2022/03/17 06:13:43;;;;;;;31.17;22.67;;;13.30;50.60;;;;;;5032097;28;20200;-46
2022/03/17 06:16:09;;;;;;;29.43;23.63;;;13.40;51.90;;;;;;5024202;28;20582;-44
2022/03/17 06:18:35;;;;;;;27.60;19.40;;;13.70;51.70;;;;;;5026981;28;20448;-48
2022/03/17 06:21:00;;;;;;;27.43;22.33;;;13.90;50.70;;;;;;5028870;28;20662;-48
2022/03/17 06:23:26;;;;;;;24.93;21.83;;;14.10;51.00;;;;;;5029108;28;20276;-44
2022/03/17 06:25:52;;;;;;;28.10;22.87;;;14.30;50.50;;;;;;5027299;28;20328;-45
2022/03/17 06:28:18;;;;;;;27.27;22.60;;;14.50;49.70;;;;;;5031982;28;20211;-48
2022/03/17 06:30:44;;;;;;;32.17;25.07;;;14.50;49.10;;;;;;5030820;28;20932;-46
2022/03/17 06:33:10;;;;;;;26.33;21.90;;;14.60;48.70;;;;;;5023604;28;21395;-48
2022/03/17 06:35:36;;;;;;;24.97;21.40;;;14.70;48.60;;;;;;5024099;28;20209;-47
2022/03/17 06:38:04;;;;;;;26.37;22.57;;;14.70;48.40;;;;;;5028316;28;20213;-44
2022/03/17 06:40:30;;;;;;;30.10;25.43;;;14.40;48.50;;;;;;5027377;28;20436;-45
2022/03/17 06:42:57;;;;;;;25.77;22.13;;;14.40;48.60;;;;;;5028909;28;20513;-46
2022/03/17 06:45:24;;;;;;;27.50;23.13;;;14.20;48.60;;;;;;5027883;28;20511;-45
2022/03/17 06:47:50;;;;;;;26.80;23.60;;;14.20;49.00;;;;;;5029237;28;20849;-44
2022/03/17 06:50:17;;;;;;;27.90;24.50;;;14.20;49.00;;;;;;5028950;28;20435;-44
2022/03/17 06:52:43;;;;;;;25.10;21.23;;;14.40;48.90;;;;;;5029035;28;20432;-45
2022/03/17 06:55:09;;;;;;;27.83;24.53;;;14.30;48.90;;;;;;5027987;28;20432;-45
2022/03/17 06:57:35;;;;;;;27.10;24.20;;;14.30;49.00;;;;;;5026734;28;20424;-44
2022/03/17 07:00:06;;;;;;;27.03;23.30;;;14.50;48.70;;;;;;5025661;28;20483;-49
2022/03/17 07:02:32;;;;;;;28.23;25.00;;;14.50;48.60;;;;;;5032935;28;20186;-44
2022/03/17 07:04:57;;;;;;;29.10;23.77;;;14.50;48.10;;;;;;5024012;28;20448;-44
2022/03/17 07:07:23;;;;;;;30.13;24.83;;;14.50;48.20;;;;;;5032898;28;20525;-46
2022/03/17 07:09:49;;;;;;;28.47;23.90;;;14.50;48.00;;;;;;5027059;28;20197;-44
2022/03/17 07:12:15;;;;;;;27.90;24.13;;;14.20;49.00;;;;;;5029436;28;20993;-44
2022/03/17 07:14:40;;;;;;;29.83;22.70;;;14.30;48.80;;;;;;5028586;28;20189;-47
2022/03/17 07:17:07;;;;;;;31.10;23.00;;;14.30;48.50;;;;;;5028381;28;20252;-45
2022/03/17 07:19:33;;;;;;;31.30;26.47;;;14.50;48.40;;;;;;5027256;28;20236;-45
2022/03/17 07:21:59;;;;;;;28.40;23.67;;;14.70;48.00;;;;;;5027371;28;20444;-46
2022/03/17 07:24:25;;;;;;;25.70;22.10;;;14.80;47.90;;;;;;5028029;28;20868;-46
2022/03/17 07:26:50;;;;;;;27.80;22.60;;;15.00;47.80;;;;;;5030263;28;20593;-48
2022/03/17 07:29:16;;;;;;;25.27;22.40;;;15.10;47.30;;;;;;5028762;28;20197;-44
2022/03/17 07:31:43;;;;;;;28.00;23.90;;;15.20;47.00;;;;;;5028227;28;20625;-44
2022/03/17 07:34:09;;;;;;;26.70;23.20;;;15.30;46.90;;;;;;5027660;28;20429;-48
2022/03/17 07:36:34;;;;;;;28.13;24.07;;;15.20;46.70;;;;;;5027576;28;20450;-44
2022/03/17 07:39:03;;;;;;;25.50;22.30;;;15.20;46.70;;;;;;5027990;28;20436;-45
2022/03/17 07:41:29;;;;;;;23.57;21.10;;;15.00;46.90;;;;;;5026704;28;20201;-44
2022/03/17 07:43:55;;;;;;;26.10;23.27;;;15.00;47.20;;;;;;5026416;28;20432;-44
2022/03/17 07:46:21;;;;;;;26.67;23.77;;;15.20;47.30;;;;;;5029059;28;20483;-47
2022/03/17 07:48:46;;;;;;;25.67;22.93;;;15.40;46.70;;;;;;5023443;28;20200;-44
2022/03/17 07:51:12;;;;;;;29.60;25.07;;;15.30;46.60;;;;;;5021343;28;20902;-47
2022/03/17 07:53:38;;;;;;;25.97;21.80;;;15.20;46.50;;;;;;5030071;28;20197;-47
2022/03/17 07:56:05;;;;;;;27.40;24.40;;;15.00;47.20;;;;;;5037709;28;20201;-47
2022/03/17 07:58:32;;;;;;;28.20;23.43;;;14.90;47.40;;;;;;5030016;28;20484;-45
2022/03/17 08:01:00;;;;;;;26.33;22.63;;;14.70;47.50;;;;;;5038529;28;20791;-47
2022/03/17 08:03:26;;;;;;;25.53;21.80;;;14.80;48.10;;;;;;5034109;28;20436;-44
2022/03/17 08:05:52;;;;;;;28.60;25.40;;;15.00;47.80;;;;;;5032066;28;20440;-48
2022/03/17 08:08:18;;;;;;;23.40;20.63;;;15.20;47.70;;;;;;5030616;28;20969;-46
2022/03/17 08:10:44;;;;;;;31.70;24.77;;;15.30;47.40;;;;;;5031975;28;20762;-43
2022/03/17 08:13:11;;;;;;;25.73;22.80;;;15.40;46.80;;;;;;5032129;28;20463;-46
2022/03/17 08:15:37;;;;;;;31.13;25.63;;;15.20;46.90;;;;;;5042929;28;20436;-45
2022/03/17 08:18:04;;;;;;;25.43;22.63;;;15.40;47.20;;;;;;5032466;28;20443;-47
2022/03/17 08:20:30;;;;;;;29.23;24.27;;;15.40;47.60;;;;;;5031891;28;20923;-45
2022/03/17 08:22:56;;;;;;;30.33;25.20;;;15.40;47.70;;;;;;5032723;28;20900;-45
2022/03/17 08:25:22;;;;;;;29.80;25.30;;;15.50;47.80;;;;;;5019601;28;20444;-47
2022/03/17 08:27:50;;;;;;;28.50;24.30;;;15.20;47.40;;;;;;5030328;28;20483;-50
2022/03/17 08:30:15;;;;;;;30.27;24.10;;;15.20;47.70;;;;;;5032016;28;20251;-47
2022/03/17 08:32:41;;;;;;;30.37;23.40;;;15.30;47.80;;;;;;5032068;28;20455;-47
2022/03/17 08:35:08;;;;;;;28.80;25.63;;;15.30;47.80;;;;;;5031536;28;20219;-47
2022/03/17 08:37:45;;;;;;;26.73;22.97;;;15.30;47.70;;;;;;5032856;28;20208;-44
2022/03/17 08:40:12;;;;;;;32.03;25.33;;;15.10;47.80;;;;;;5029437;28;20946;-46
2022/03/17 08:42:38;;;;;;;29.90;25.47;;;15.20;47.90;;;;;;5034829;28;20828;-47
2022/03/17 08:49:18;;;;;;;29.43;26.23;;;15.20;47.80;;;;;;5031425;28;20446;-47
2022/03/17 08:50:36;;;;;;;29.70;26.50;;;15.30;47.60;;;;;;5025039;28;20435;-50
2022/03/17 08:53:02;;;;;;;38.77;29.70;;;15.40;47.50;;;;;;5031780;28;20436;-45
2022/03/17 08:55:28;;;;;;;31.50;26.50;;;15.30;48.00;;;;;;5029561;28;20463;-47
2022/03/17 08:57:53;;;;;;;35.33;27.67;;;15.30;48.30;;;;;;5031225;28;20751;-50
2022/03/17 09:00:19;;;;;;;32.07;26.10;;;15.50;48.10;;;;;;5030235;28;20311;-46
2022/03/17 09:02:48;;;;;;;29.57;26.37;;;15.30;47.80;;;;;;5030415;28;20208;-46
2022/03/17 09:05:14;;;;;;;28.97;24.83;;;15.30;48.30;;;;;;5030736;28;20279;-46
2022/03/17 09:07:40;;;;;;;28.70;24.43;;;15.60;48.10;;;;;;5031179;28;20975;-46
2022/03/17 09:10:06;;;;;;;29.30;25.07;;;15.70;47.60;;;;;;5030980;28;20311;-44
2022/03/17 09:12:33;;;;;;;28.53;24.37;;;15.70;47.30;;;;;;5030689;28;20284;-44
2022/03/17 09:14:59;;;;;;;27.63;23.60;;;15.70;47.30;;;;;;5035631;28;20485;-45
2022/03/17 09:17:25;;;;;;;30.97;25.30;;;15.90;47.20;;;;;;5031226;28;20443;-44
2022/03/17 09:19:51;;;;;;;29.90;24.57;;;16.10;46.90;;;;;;5030955;28;20447;-44
2022/03/17 09:22:17;;;;;;;28.70;25.67;;;16.10;46.80;;;;;;5029415;28;20847;-46
2022/03/17 09:24:43;;;;;;;26.70;23.73;;;16.10;46.70;;;;;;5026343;28;20284;-44
2022/03/17 09:27:09;;;;;;;29.67;24.23;;;16.20;46.70;;;;;;5028344;28;20224;-45
2022/03/17 09:29:38;;;;;;;26.90;24.00;;;16.20;46.50;;;;;;5030255;28;20521;-44
2022/03/17 09:32:04;;;;;;;31.70;24.70;;;16.30;46.40;;;;;;5030498;28;20553;-46
2022/03/17 09:34:32;;;;;;;26.20;22.43;;;16.30;46.20;;;;;;5029446;28;20450;-45
2022/03/17 09:36:57;;;;;;;28.20;25.13;;;16.40;46.50;;;;;;5026007;28;20434;-47
2022/03/17 09:42:07;;;;;;;27.70;24.80;;;16.60;46.30;;;;;;5028015;28;20322;-45
2022/03/17 09:44:34;;;;;;;32.23;26.43;;;16.70;46.10;;;;;;5020551;28;20884;-45
2022/03/17 09:47:00;;;;;;;27.80;23.03;;;16.80;45.80;;;;;;5027135;28;20229;-45
2022/03/17 09:49:27;;;;;;;27.30;24.37;;;16.80;45.90;;;;;;5026592;28;20527;-46
2022/03/17 09:51:55;;;;;;;29.13;25.97;;;16.80;45.80;;;;;;5026951;28;20436;-46
2022/03/17 09:54:21;;;;;;;28.87;25.73;;;16.70;45.70;;;;;;5025002;28;20441;-46
2022/03/17 09:56:47;;;;;;;26.57;23.13;;;16.80;45.60;;;;;;5023263;28;20455;-45
2022/03/17 09:59:12;;;;;;;30.87;25.30;;;16.80;45.60;;;;;;5030841;28;20240;-49
2022/03/17 10:01:38;;;;;;;28.33;25.33;;;16.80;45.50;;;;;;5033778;28;20230;-45
2022/03/17 10:04:06;;;;;;;28.77;24.73;;;16.80;45.40;;;;;;5027181;28;20196;-46
2022/03/17 10:06:32;;;;;;;28.03;24.00;;;16.80;45.60;;;;;;5026566;28;20510;-44
2022/03/17 10:08:59;;;;;;;26.33;22.27;;;16.80;45.70;;;;;;5027867;28;20428;-46
2022/03/17 10:11:37;;;;;;;29.00;24.23;;;16.90;45.80;;;;;;5029386;28;20439;-45
2022/03/17 10:14:05;;;;;;;30.40;25.50;;;17.00;45.60;;;;;;5029021;28;21145;-47
2022/03/17 10:16:31;;;;;;;27.60;24.63;;;17.00;45.30;;;;;;5027750;28;21377;-46
2022/03/17 10:18:59;;;;;;;28.23;24.50;;;17.00;45.30;;;;;;5028840;28;20424;-46
2022/03/17 10:21:27;;;;;;;30.67;26.30;;;17.00;45.30;;;;;;5026938;28;20440;-48
2022/03/17 10:24:08;;;;;;;30.37;24.67;;;16.90;45.20;;;;;;5032182;28;20637;-46
2022/03/17 10:26:47;;;;;;;30.60;24.50;;;16.90;45.40;;;;;;5025428;28;20471;-46
2022/03/17 10:29:20;;;;;;;30.60;24.03;;;17.10;45.40;;;;;;5030673;28;20943;-45
2022/03/17 10:32:09;;;;;;;29.40;26.10;;;17.10;45.50;;;;;;5029052;28;20436;-45
2022/03/17 10:34:56;;;;;;;29.97;25.60;;;16.80;45.70;;;;;;5027199;28;20459;-45
2022/03/17 10:37:24;;;;;;;27.00;23.97;;;16.90;46.10;;;;;;5028997;28;20479;-48
2022/03/17 10:39:52;;;;;;;27.83;23.20;;;17.10;45.90;;;;;;5027785;28;20451;-45
2022/03/17 10:42:29;;;;;;;29.50;26.40;;;17.20;45.60;;;;;;5028829;28;21115;-45
2022/03/17 10:45:05;;;;;;;30.67;25.67;;;17.30;45.40;;;;;;5026425;28;20949;-46
2022/03/17 10:47:39;;;;;;;31.80;26.57;;;17.40;45.20;;;;;;5024844;28;20681;-46
2022/03/17 10:50:19;;;;;;;30.40;25.80;;;17.40;45.20;;;;;;5026871;28;20446;-45
2022/03/17 10:52:57;;;;;;;32.60;26.13;;;17.30;45.40;;;;;;5027971;28;20436;-45
2022/03/17 10:55:26;;;;;;;33.10;25.97;;;17.30;45.70;;;;;;5036385;28;20440;-45
2022/03/17 10:57:59;;;;;;;32.33;28.83;;;17.40;45.60;;;;;;5028688;28;20447;-46
2022/03/17 11:00:27;;;;;;;34.30;27.00;;;17.40;45.30;;;;;;5027282;28;20472;-45
2022/03/17 11:02:57;;;;;;;29.90;26.70;;;17.50;45.40;;;;;;5028045;28;20438;-45
2022/03/17 11:05:29;;;;;;;28.27;23.80;;;17.50;45.90;;;;;;5024077;28;20796;-47
2022/03/17 11:07:59;;;;;;;31.20;26.83;;;17.60;46.10;;;;;;5027532;28;20537;-48
2022/03/17 11:10:26;;;;;;;29.37;25.20;;;17.60;45.90;;;;;;5028346;28;20518;-46
2022/03/17 11:12:51;;;;;;;28.77;25.70;;;17.70;45.70;;;;;;5028363;28;20527;-50
2022/03/17 11:15:28;;;;;;;33.80;28.50;;;17.70;45.30;;;;;;5027517;28;20503;-49
2022/03/17 11:17:58;;;;;;;32.40;27.20;;;17.80;45.60;;;;;;5025799;28;20192;-50
2022/03/17 11:20:24;;;;;;;31.17;27.00;;;17.80;45.50;;;;;;5027583;28;20442;-47
2022/03/17 11:23:16;;;;;;;31.10;26.60;;;17.90;45.60;;;;;;5028561;28;20440;-47
2022/03/17 11:26:06;;;;;;;32.00;26.20;;;17.90;45.30;;;;;;5028893;28;20208;-45
2022/03/17 11:28:37;;;;;;;31.97;28.07;;;18.00;45.30;;;;;;5029669;28;20452;-49
2022/03/17 11:31:05;;;;;;;29.73;26.40;;;18.00;45.20;;;;;;5031580;28;20443;-50
2022/03/17 11:33:44;;;;;;;32.63;27.90;;;18.10;45.10;;;;;;5032642;28;20440;-47
2022/03/17 11:36:10;;;;;;;33.17;26.20;;;18.10;45.40;;;;;;5032046;28;20449;-45
2022/03/17 11:38:42;;;;;;;32.17;27.00;;;17.90;45.80;;;;;;5030446;28;20531;-47
2022/03/17 11:41:22;;;;;;;36.37;29.10;;;17.90;46.10;;;;;;5032339;28;20229;-50
2022/03/17 11:43:48;;;;;;;29.63;25.97;;;17.90;46.00;;;;;;5030812;28;20439;-45
2022/03/17 11:46:14;;;;;;;31.67;28.27;;;18.00;45.90;;;;;;5030902;28;20479;-48
2022/03/17 11:48:40;;;;;;;34.23;27.63;;;18.00;46.10;;;;;;5031738;28;20204;-46
2022/03/17 11:51:09;;;;;;;34.27;27.80;;;18.00;46.20;;;;;;5032644;28;20652;-48
2022/03/17 11:53:37;;;;;;;33.73;28.67;;;18.00;46.50;;;;;;5031492;28;20464;-50
2022/03/17 11:56:02;;;;;;;39.83;27.80;;;17.90;46.50;;;;;;5032307;28;21001;-45
2022/03/17 11:58:46;;;;;;;35.87;28.17;;;17.80;46.80;;;;;;5032520;28;20467;-48
2022/03/17 12:01:22;;;;;;;32.10;26.87;;;17.80;47.30;;;;;;5028811;28;20216;-49
2022/03/17 12:03:54;;;;;;;32.00;27.57;;;17.60;47.50;;;;;;5031284;28;20440;-49
2022/03/17 12:06:21;;;;;;;32.67;27.10;;;17.60;47.80;;;;;;5031614;28;20549;-47
2022/03/17 12:09:10;;;;;;;34.27;28.60;;;17.50;48.00;;;;;;5030955;28;20919;-50
2022/03/17 12:11:46;;;;;;;37.57;30.17;;;17.60;48.10;;;;;;5026181;28;20436;-49
2022/03/17 12:14:18;;;;;;;37.80;28.93;;;17.70;48.40;;;;;;5030425;28;20442;-49
2022/03/17 12:16:57;;;;;;;35.37;27.60;;;17.70;48.10;;;;;;5033451;28;20455;-48
2022/03/17 12:19:41;;;;;;;32.53;27.10;;;17.80;48.20;;;;;;5024047;28;20472;-47
2022/03/17 12:22:08;;;;;;;32.70;26.97;;;17.80;48.10;;;;;;5027233;28;20448;-48
2022/03/17 12:24:33;;;;;;;35.50;28.93;;;17.80;48.20;;;;;;5022959;28;20448;-48
2022/03/17 12:27:04;;;;;;;34.10;28.13;;;17.80;48.40;;;;;;5033263;28;20508;-45
2022/03/17 12:29:31;;;;;;;35.83;27.00;;;17.80;48.90;;;;;;5031513;28;20200;-46
2022/03/17 12:32:02;;;;;;;35.20;27.63;;;17.80;49.00;;;;;;5034082;28;20436;-50
2022/03/17 12:34:28;;;;;;;33.57;28.73;;;17.90;49.20;;;;;;5030626;28;20431;-45
2022/03/17 12:36:54;;;;;;;34.50;29.50;;;17.90;49.70;;;;;;5030836;28;20432;-49
2022/03/17 12:39:27;;;;;;;33.80;30.10;;;17.90;50.50;;;;;;5025359;28;20193;-46
2022/03/17 12:41:53;;;;;;;36.20;28.90;;;18.00;51.10;;;;;;5028919;28;20456;-46
2022/03/17 12:44:23;;;;;;;33.33;29.70;;;17.90;51.40;;;;;;5031382;28;20474;-46